Nearby METAR Reports

 

KPMP - Pompano Beach, Florida, USA
Distance from station: NNW 3mi, 5km
Updated: 10/19/2020 10:53am
Light rain, Mostly cloudy
Light rain, Mostly cloudy
 Wind from E
Wind: E 14 mph , 22 km/h
Temperature: 79°F , 26°C
Dew Point: 73°F , 23°C
Humidity: 84%
Barometer: 30.01 inHg , 1016.3 hPa
Summary: Light rain
Clouds: Mostly cloudy
Visibility: 10 miles , 16 km
Cloud details: Few Clouds 1500 ft
Partly cloudy 7500 ft
Mostly cloudy 9000 ft
2020/10/19 14:53 KPMP 191453Z 08012KT 10SM -RA FEW015 SCT075 BKN090 26/23 A3001 RMK AO2 LTG DSNT NE RAB35 SLP164 P0000 60000 T02610228 53018
KFXE - Ft Lauderd/Exec, Florida, USA
Distance from station: W 6mi, 9km
Updated: 10/19/2020 10:53am
Light rain, Overcast
Light rain, Overcast
 Wind from E
Wind: E 13 mph , 20 km/h
Temperature: 81°F , 27°C
Heat Index: 86°F , 30°C
Dew Point: 73°F , 23°C
Humidity: 79%
Barometer: 30.01 inHg , 1016.3 hPa
Summary: Light rain
Clouds: Overcast
Visibility: 10 miles , 16 km
Cloud details: Partly cloudy 2500 ft
Mostly cloudy 7500 ft
Overcast 10000 ft
2020/10/19 14:53 KFXE 191453Z 08011KT 10SM -RA SCT025 BKN075 OVC100 27/23 A3001 RMK AO2 RAB50 SLP165 P0000 60000 T02670233 53021
 
KFLL - Ft Lauderd/Holly, Florida, USA
Distance from station: SSW 11mi, 17km
Updated: 10/19/2020 10:53am
Overcast
Overcast
 Wind from E
Wind: E 15 mph , 24 km/h
Temperature: 81°F , 27°C
Heat Index: 87°F , 31°C
Dew Point: 75°F , 24°C
Humidity: 84%
Barometer: 30.00 inHg , 1015.9 hPa
Clouds: Overcast
Visibility: 10 miles , 16 km
Cloud details: Few Clouds 2800 ft
Few Clouds 7500 ft
Mostly cloudy 11000 ft
Overcast 15000 ft
2020/10/19 14:53 KFLL 191453Z 09013KT 10SM FEW028 FEW075 BKN110 OVC150 27/24 A3000 RMK AO2 RAB42E51 SLP158 P0002 60010 T02670239 53014
KBCT - Boca Raton, Florida, USA
Distance from station: N 12mi, 19km
Updated: 10/19/2020 10:47am
Rain, Mostly cloudy
Rain, Mostly cloudy
 Wind from E
Wind: E 9 mph , 15 km/h, Gust: 16 mph , 26 km/h
Temperature: 79°F , 26°C
Dew Point: 73°F , 23°C
Humidity: 84%
Barometer: 30.03 inHg , 1016.9 hPa
Summary: Rain
Clouds: Mostly cloudy
Visibility: 3 miles , 5 km
Cloud details: Mostly cloudy 3000 ft
2020/10/19 14:47 KBCT 191447Z 08008G14KT 3SM RA BKN030 26/23 A3003
 
KHWO - Hollywood, Florida, USA
Distance from station: SSW 17mi, 27km
Updated: 10/19/2020 10:53am
Overcast
Overcast
 Wind from E
Wind: E 15 mph , 24 km/h
Temperature: 81°F , 27°C
Heat Index: 86°F , 30°C
Dew Point: 73°F , 23°C
Humidity: 79%
Barometer: 30.02 inHg , 1016.6 hPa
Clouds: Overcast
Visibility: 10 miles , 16 km
Cloud details: Partly cloudy 2200 ft
Overcast 7000 ft
2020/10/19 14:53 KHWO 191453Z 09013KT 10SM SCT022 OVC070 27/23 A3002 RMK AO2 SLP164 60002 T02670233 53016
KOPF - Miami/Opa Locka, Florida, USA
Distance from station: SSW 24mi, 38km
Updated: 10/19/2020 10:53am
Mostly cloudy
Mostly cloudy
 Wind from E
Wind: E 12 mph , 19 km/h
Temperature: 79°F , 26°C
Dew Point: 72°F , 22°C
Humidity: 79%
Barometer: 30.01 inHg , 1016.3 hPa
Clouds: Mostly cloudy
Visibility: 10 miles , 16 km
Cloud details: Mostly cloudy 10000 ft
2020/10/19 14:53 KOPF 191453Z 10010KT 10SM BKN100 26/22 A3001 RMK AO2 SLP161 T02560217 51017
 
KMIA - Miami, Florida, USA
Distance from station: SSW 31mi, 50km
Updated: 10/19/2020 10:53am
Mostly cloudy
Mostly cloudy
 Wind from E
Wind: E 14 mph , 22 km/h
Temperature: 79°F , 26°C
Dew Point: 73°F , 23°C
Humidity: 84%
Barometer: 30.00 inHg , 1015.9 hPa
Clouds: Mostly cloudy
Visibility: 10 miles , 16 km
Cloud details: Few Clouds 1600 ft
Partly cloudy 4500 ft
Mostly cloudy 8000 ft
2020/10/19 14:53 KMIA 191453Z 08012KT 10SM FEW016 SCT045 BKN080 26/23 A3000 RMK AO2 RAE09 SLP157 P0001 60006 T02610228 51016
KPBI - West Palm Beach, Florida, USA
Distance from station: N 33mi, 52km
Updated: 10/19/2020 11:06am
Heavy thunderstorm, Rain, Fog, Mostly cloudy
Heavy thunderstorm, Rain, Fog, Mostly cloudy
 Wind from E
Wind: E 15 mph , 24 km/h, Gust: 23 mph , 37 km/h
Temperature: 73°F , 23°C
Dew Point: 72°F , 22°C
Humidity: 94%
Barometer: 30.06 inHg , 1017.9 hPa
Summary: Heavy thunderstorm, Rain, Fog
Clouds: Mostly cloudy
Visibility: 1/2 mile , 0.8 km
Cloud details: Partly cloudy 1100 ft
Mostly cloudy 2600 ft
Mostly cloudy 3700 ft
2020/10/19 15:06 KPBI 191506Z 08013G20KT 1/2SM R10L/2400VP6000FT +TSRA FG SCT011 BKN026CB BKN037 23/22 A3006 RMK AO2 LTG DSNT N-E OCNL LTGICCG OHD-NW-E TS OHD-NW-E MOV SW CB DSNT NE-E P0001 T02280217 $
 
KTMB - Miami/Tamiami, Florida, USA
Distance from station: SSW 44mi, 71km
Updated: 10/19/2020 10:53am
Partly cloudy
Partly cloudy
 Wind from E
Wind: E 17 mph , 28 km/h
Temperature: 79°F , 26°C
Dew Point: 73°F , 23°C
Humidity: 84%
Barometer: 29.98 inHg , 1015.2 hPa
Clouds: Partly cloudy
Visibility: 10 miles , 16 km
Cloud details: Few Clouds 3800 ft
Partly cloudy 9000 ft
Partly cloudy 11000 ft
2020/10/19 14:53 KTMB 191453Z 08015KT 10SM FEW038 SCT090 SCT110 26/23 A2998 RMK AO2 PK WND 10028/1404 RAE48 SLP152 6//// T02610233 52013 $